Kezdőlap
METAR-TAF:

METAR-TAF

Repülőterek :

Grise Fiord, Nunavut, Kanada

földrajzi szélesség: 76-25N, földrajzi hosszúság: 082-54W, magasság: 45 m

Jelenlegi meteorológiai megfigyelések

A jelentés 22 órával és 52 perccel ezelõtt készült, 21:00 UTC
Északkeleti szél 3 kt, északi és délkeleti között változik
Hőmérséklet -34°C
Páratartalom 60%
Légköri nyomás 1029 hPa
Látótávolság: 16.1 km
Kevés felhő 22000 lábon
Jégtű

METAR: CWGZ 162100Z 05003KT 360V140 10SM IC FEW220 M34/M39 A3040 RMK CS1 CS TR S0.0 AFT 13UTC 0.1LAST STFD OBS/NXT 191300Z SLP305

Idő: 14:52 (19:52 UTC)


TAF: hiányzik

Meteorológiai megfigyelések és előrejelzések több, mint 4000 repülőtéren (METAR és TAF jelentéseket).

A térképen piros és sárga pontok jelzik az elérhető meteorológiai állomásokat.

Mozgassa az egeret a pont fölött, hogy megjelenjen az állomás neve.

Azután kattintson az időjárási megfigyelések és előrejelzések megtekintéséhez.

A térkép megváltoztatása: kattintson a fekete keresztel jelölt zöld gombra ráközelítéshez, a vonallal jelölt zöld gombra távolításhoz, vagy a zöld nyilakra a szomszédos térképek eléréséhez.


METAR-TAF: